createdAt,value
2022-10-22T00:00:13.431Z,2.50
2022-10-22T00:02:41.814Z,2.20
2022-10-22T00:05:09.468Z,2.43
2022-10-22T00:07:36.099Z,2.20
2022-10-22T00:10:04.877Z,1.70
2022-10-22T00:12:31.670Z,2.03
2022-10-22T00:14:58.618Z,2.67
2022-10-22T00:17:25.161Z,2.60
2022-10-22T00:19:51.842Z,3.10
2022-10-22T00:22:19.153Z,2.60
2022-10-22T00:24:46.742Z,1.93
2022-10-22T00:27:14.005Z,1.73
2022-10-22T00:29:41.454Z,1.77
2022-10-22T00:32:08.026Z,1.80
2022-10-22T00:34:40.719Z,1.60
2022-10-22T00:37:07.422Z,1.33
2022-10-22T00:39:34.008Z,1.50
2022-10-22T00:42:02.466Z,1.60
2022-10-22T00:45:03.321Z,1.80
2022-10-22T00:47:36.879Z,1.33
2022-10-22T00:50:09.024Z,1.00
2022-10-22T00:52:36.571Z,1.30
2022-10-22T00:55:03.723Z,0.97
2022-10-22T00:57:31.324Z,1.23
2022-10-22T00:59:58.555Z,1.40
2022-10-22T01:02:25.333Z,1.10
2022-10-22T01:04:51.854Z,1.30
2022-10-22T01:07:23.994Z,1.17
2022-10-22T01:10:08.928Z,1.40
2022-10-22T01:13:03.758Z,1.30
2022-10-22T01:15:43.525Z,1.20
2022-10-22T01:18:36.202Z,0.90
2022-10-22T01:21:25.115Z,0.90
2022-10-22T01:23:54.787Z,1.30
2022-10-22T01:29:09.327Z,0.90
2022-10-22T01:31:44.457Z,0.80
2022-10-22T01:34:13.972Z,1.20
2022-10-22T01:36:42.200Z,1.13
2022-10-22T01:39:09.087Z,1.27
2022-10-22T01:41:35.784Z,1.33
2022-10-22T01:44:02.349Z,1.03
2022-10-22T01:46:29.578Z,0.90
2022-10-22T01:49:20.608Z,0.90
2022-10-22T01:52:15.481Z,0.90
2022-10-22T01:54:52.073Z,0.73
2022-10-22T01:57:56.943Z,0.70
2022-10-22T02:00:23.886Z,0.73
2022-10-22T02:03:07.917Z,0.70
2022-10-22T02:05:43.413Z,1.00
2022-10-22T02:08:14.782Z,0.80
2022-10-22T02:10:46.451Z,0.50
2022-10-22T02:13:18.376Z,0.50
2022-10-22T02:15:48.464Z,0.50
2022-10-22T02:18:17.536Z,0.50
2022-10-22T02:20:44.252Z,0.60
2022-10-22T02:23:12.235Z,0.57
2022-10-22T02:25:42.508Z,0.47
2022-10-22T02:28:53.938Z,0.60
2022-10-22T02:31:26.240Z,0.50
2022-10-22T02:33:57.858Z,0.40
2022-10-22T02:36:25.552Z,0.73
2022-10-22T02:38:52.640Z,0.40
2022-10-22T02:41:20.653Z,0.50
2022-10-22T02:43:55.922Z,0.33
2022-10-22T02:46:24.715Z,0.60
2022-10-22T02:48:51.267Z,0.50
2022-10-22T02:51:18.374Z,0.65
2022-10-22T02:53:45.222Z,0.57
2022-10-22T02:56:12.717Z,0.63
2022-10-22T02:58:39.190Z,0.40
2022-10-22T03:01:05.898Z,0.55
2022-10-22T03:03:32.587Z,0.30
2022-10-22T03:05:59.033Z,0.20
2022-10-22T03:08:25.603Z,0.40
2022-10-22T03:10:53.721Z,0.40
2022-10-22T03:13:20.349Z,0.30
2022-10-22T03:15:49.732Z,0.20
2022-10-22T03:18:16.940Z,0.30
2022-10-22T03:20:44.489Z,0.30
2022-10-22T03:23:15.594Z,0.27
2022-10-22T03:25:44.541Z,0.30
2022-10-22T03:28:15.200Z,0.30
2022-10-22T03:30:41.686Z,0.20
2022-10-22T03:33:08.883Z,0.23
2022-10-22T03:35:42.901Z,0.30
2022-10-22T03:38:09.630Z,0.23
2022-10-22T03:40:36.137Z,0.23
2022-10-22T03:43:02.843Z,0.40
2022-10-22T03:45:29.530Z,0.37
2022-10-22T03:47:56.228Z,0.60
2022-10-22T03:50:23.010Z,0.20
2022-10-22T03:52:49.865Z,0.30
2022-10-22T03:55:16.572Z,0.30
2022-10-22T03:57:43.306Z,0.60
2022-10-22T04:00:10.495Z,0.33
2022-10-22T04:02:38.250Z,0.57
2022-10-22T04:05:05.078Z,0.30
2022-10-22T04:07:32.500Z,0.30
2022-10-22T04:09:59.397Z,0.33
2022-10-22T04:12:26.269Z,0.40
2022-10-22T04:14:52.773Z,0.33
2022-10-22T04:17:19.540Z,0.30
2022-10-22T04:19:46.127Z,0.40
2022-10-22T04:22:12.804Z,0.30
2022-10-22T04:24:39.373Z,0.30
2022-10-22T04:27:05.983Z,0.30
2022-10-22T04:29:32.752Z,0.40
2022-10-22T04:32:00.381Z,0.40
2022-10-22T04:34:28.735Z,0.53
2022-10-22T04:36:56.255Z,0.50
2022-10-22T04:39:22.769Z,0.40
2022-10-22T04:41:49.336Z,0.40
2022-10-22T04:44:18.265Z,0.30
2022-10-22T04:46:46.534Z,0.47
2022-10-22T04:49:13.077Z,0.60
2022-10-22T04:51:39.958Z,0.40
2022-10-22T04:54:07.529Z,0.60
2022-10-22T04:56:34.362Z,0.53
2022-10-22T04:59:04.609Z,0.33
2022-10-22T05:01:43.234Z,0.40
2022-10-22T05:04:16.819Z,0.50
2022-10-22T05:06:44.104Z,0.30
2022-10-22T05:09:14.140Z,0.40
2022-10-22T05:11:45.339Z,0.40
2022-10-22T05:14:12.741Z,0.47
2022-10-22T05:16:40.303Z,0.20
2022-10-22T05:19:09.651Z,0.23
2022-10-22T05:21:37.641Z,0.30
2022-10-22T05:24:05.814Z,0.30
2022-10-22T05:26:32.625Z,0.20
2022-10-22T05:28:59.380Z,0.70
2022-10-22T05:31:26.166Z,0.37
2022-10-22T05:33:52.877Z,0.40
2022-10-22T05:36:21.978Z,0.40
2022-10-22T05:38:49.646Z,0.30
2022-10-22T05:41:18.691Z,0.50
2022-10-22T05:43:46.091Z,0.50
2022-10-22T05:46:22.522Z,0.50
2022-10-22T05:48:53.860Z,0.30
2022-10-22T05:51:21.501Z,0.50
2022-10-22T05:53:55.256Z,0.50
2022-10-22T05:56:24.802Z,0.40
2022-10-22T05:58:52.810Z,0.70
2022-10-22T06:01:22.843Z,0.60
2022-10-22T06:03:53.965Z,0.70
2022-10-22T06:06:35.880Z,0.30
2022-10-22T06:09:15.100Z,0.67
2022-10-22T06:11:41.958Z,0.43
2022-10-22T06:14:09.885Z,0.57
2022-10-22T06:16:37.278Z,0.40
2022-10-22T06:19:03.944Z,0.20
2022-10-22T06:21:31.696Z,0.50
2022-10-22T06:24:00.767Z,0.40
2022-10-22T06:26:27.462Z,0.50
2022-10-22T06:28:57.043Z,0.53
2022-10-22T06:31:25.716Z,0.30
2022-10-22T06:33:52.480Z,2.67
2022-10-22T06:36:22.061Z,1.13
2022-10-22T06:38:52.491Z,0.60
2022-10-22T06:41:19.518Z,0.43
2022-10-22T06:43:47.201Z,0.50
2022-10-22T06:46:20.224Z,0.50
2022-10-22T06:49:03.134Z,0.80
2022-10-22T06:51:30.869Z,0.80
2022-10-22T06:53:58.612Z,0.60
2022-10-22T06:56:27.772Z,0.90
2022-10-22T06:58:56.871Z,1.10
2022-10-22T07:01:27.131Z,1.10
2022-10-22T07:03:54.241Z,0.80
2022-10-22T07:06:24.084Z,0.80
2022-10-22T07:08:51.464Z,1.00
2022-10-22T07:11:30.687Z,0.63
2022-10-22T07:14:00.231Z,1.00
2022-10-22T07:16:31.103Z,0.60
2022-10-22T07:19:00.451Z,0.70
2022-10-22T07:21:27.784Z,0.40
2022-10-22T07:23:54.468Z,0.53
2022-10-22T07:26:21.394Z,0.50
2022-10-22T07:28:48.511Z,0.73
2022-10-22T07:31:16.013Z,1.07
2022-10-22T07:33:42.817Z,0.60
2022-10-22T07:36:17.506Z,0.63
2022-10-22T07:38:56.154Z,0.90
2022-10-22T07:41:23.801Z,0.80
2022-10-22T07:43:51.060Z,1.90
2022-10-22T07:46:18.336Z,0.60
2022-10-22T07:48:44.937Z,0.85
2022-10-22T07:51:11.894Z,1.05
2022-10-22T07:53:38.571Z,0.90
2022-10-22T07:56:06.798Z,1.00
2022-10-22T07:58:34.248Z,0.90
2022-10-22T08:01:02.447Z,1.05
2022-10-22T08:03:29.676Z,0.50
2022-10-22T08:05:56.241Z,1.08
2022-10-22T08:08:27.150Z,0.88
2022-10-22T08:10:59.274Z,0.60
2022-10-22T08:13:26.509Z,0.75
2022-10-22T08:15:57.340Z,0.60
2022-10-22T08:18:25.749Z,0.40
2022-10-22T08:20:53.734Z,0.43
2022-10-22T08:23:24.466Z,0.40
2022-10-22T08:25:55.450Z,0.40
2022-10-22T08:28:23.146Z,0.30
2022-10-22T08:30:50.193Z,0.47
2022-10-22T08:33:17.104Z,0.40
2022-10-22T08:35:51.118Z,0.40
2022-10-22T08:38:18.565Z,0.50
2022-10-22T08:40:51.763Z,0.60
2022-10-22T08:43:32.869Z,0.32
2022-10-22T08:46:24.080Z,0.70
2022-10-22T08:49:00.305Z,0.50
2022-10-22T08:51:32.564Z,0.57
2022-10-22T08:54:18.148Z,0.60
2022-10-22T08:56:50.498Z,0.50
2022-10-22T08:59:33.318Z,0.63
2022-10-22T09:02:00.403Z,1.05
2022-10-22T09:04:32.678Z,0.57
2022-10-22T09:07:00.749Z,0.70
2022-10-22T09:09:36.755Z,0.70
2022-10-22T09:12:05.801Z,0.52
2022-10-22T09:14:33.528Z,0.55
2022-10-22T09:17:26.441Z,0.60
2022-10-22T09:20:17.618Z,0.55
2022-10-22T09:23:16.917Z,0.55
2022-10-22T09:25:46.924Z,0.80
2022-10-22T09:28:13.891Z,0.43
2022-10-22T09:30:41.730Z,0.40
2022-10-22T09:33:11.117Z,0.75
2022-10-22T09:35:56.147Z,0.57
2022-10-22T09:38:28.822Z,0.55
2022-10-22T09:40:57.516Z,0.88
2022-10-22T09:43:24.426Z,0.60
2022-10-22T09:46:00.552Z,0.60
2022-10-22T09:48:40.588Z,0.50
2022-10-22T09:51:15.437Z,0.70
2022-10-22T09:53:44.701Z,0.73
2022-10-22T09:56:33.842Z,0.73
2022-10-22T09:59:00.334Z,0.50
2022-10-22T10:01:30.422Z,0.70
2022-10-22T10:04:10.221Z,0.68
2022-10-22T10:06:41.933Z,0.70
2022-10-22T10:09:20.872Z,0.98
2022-10-22T10:12:14.103Z,0.60
2022-10-22T10:15:22.146Z,0.77
2022-10-22T10:17:48.574Z,0.70
2022-10-22T10:20:35.189Z,0.60
2022-10-22T10:23:14.349Z,0.88
2022-10-22T10:25:57.882Z,1.00
2022-10-22T10:28:52.629Z,0.68
2022-10-22T10:31:35.366Z,0.50
2022-10-22T10:34:05.563Z,0.90
2022-10-22T10:36:40.190Z,0.90
2022-10-22T10:39:12.969Z,0.95
2022-10-22T10:42:12.125Z,0.90
2022-10-22T10:44:50.892Z,0.80
2022-10-22T10:47:45.308Z,0.88
2022-10-22T10:50:26.249Z,0.90
2022-10-22T10:53:04.328Z,0.80
2022-10-22T10:55:35.798Z,0.70
2022-10-22T10:58:21.740Z,0.65
2022-10-22T11:00:56.906Z,0.68
2022-10-22T11:03:44.541Z,0.75
2022-10-22T11:06:19.409Z,0.75
2022-10-22T11:09:02.147Z,0.90
2022-10-22T11:11:35.261Z,0.70
2022-10-22T11:14:14.625Z,1.00
2022-10-22T11:16:46.821Z,0.75
2022-10-22T11:19:46.236Z,0.80
2022-10-22T11:22:19.932Z,0.82
2022-10-22T11:25:07.117Z,0.95
2022-10-22T11:27:41.057Z,0.80
2022-10-22T11:30:20.312Z,0.70
2022-10-22T11:32:53.070Z,0.95
2022-10-22T11:35:26.043Z,0.82
2022-10-22T11:37:55.529Z,0.70
2022-10-22T11:40:35.759Z,0.70
2022-10-22T11:43:06.736Z,1.00
2022-10-22T11:45:42.718Z,0.70
2022-10-22T11:48:19.472Z,1.00
2022-10-22T11:50:57.529Z,1.05
2022-10-22T11:53:35.301Z,0.93
2022-10-22T11:56:07.804Z,1.13
2022-10-22T11:58:39.615Z,1.02
2022-10-22T12:01:10.279Z,0.95
2022-10-22T12:03:58.587Z,0.93
2022-10-22T12:06:27.871Z,0.63
2022-10-22T12:08:54.767Z,1.00
2022-10-22T12:11:48.374Z,0.70
2022-10-22T12:14:19.904Z,1.08
2022-10-22T12:16:58.194Z,0.80
2022-10-22T12:19:38.337Z,0.93
2022-10-22T12:22:07.862Z,0.90
2022-10-22T12:24:38.500Z,0.90
2022-10-22T12:27:22.839Z,0.70
2022-10-22T12:29:57.625Z,1.10
2022-10-22T12:32:33.794Z,0.95
2022-10-22T12:35:06.858Z,0.98
2022-10-22T12:37:37.178Z,0.73
2022-10-22T12:40:24.103Z,0.60
2022-10-22T12:42:53.520Z,0.70
2022-10-22T12:45:21.001Z,0.98
2022-10-22T12:47:50.279Z,0.70
2022-10-22T12:50:25.825Z,0.60
2022-10-22T12:52:54.404Z,0.88
2022-10-22T12:55:25.901Z,0.85
2022-10-22T12:57:53.431Z,0.70
2022-10-22T13:00:21.758Z,0.95
2022-10-22T13:02:48.728Z,0.57
2022-10-22T13:05:25.010Z,1.00
2022-10-22T13:08:17.899Z,0.60
2022-10-22T13:10:51.622Z,0.75
2022-10-22T13:13:42.474Z,0.90
2022-10-22T13:16:20.656Z,0.65
2022-10-22T13:18:48.644Z,0.77
2022-10-22T13:21:38.165Z,0.65
2022-10-22T13:24:22.968Z,0.90
2022-10-22T13:26:53.794Z,0.88
2022-10-22T13:29:23.186Z,1.00
2022-10-22T13:31:53.067Z,0.90
2022-10-22T13:34:25.639Z,1.00
2022-10-22T13:36:52.496Z,1.27
2022-10-22T13:39:24.849Z,0.68
2022-10-22T13:41:51.971Z,1.00
2022-10-22T13:44:20.043Z,0.80
2022-10-22T13:46:51.562Z,0.80
2022-10-22T13:49:23.428Z,0.57
2022-10-22T13:51:51.326Z,0.70
2022-10-22T13:54:22.655Z,0.80
2022-10-22T13:56:49.187Z,1.00
2022-10-22T13:59:18.378Z,0.93
2022-10-22T14:01:47.913Z,0.93
2022-10-22T14:04:15.753Z,0.73
2022-10-22T14:06:43.017Z,1.00
2022-10-22T14:09:15.154Z,0.88
2022-10-22T14:11:43.366Z,0.90
2022-10-22T14:14:14.344Z,0.75
2022-10-22T14:16:41.741Z,0.60
2022-10-22T14:19:15.754Z,0.65
2022-10-22T14:21:43.660Z,0.80
2022-10-22T14:24:13.066Z,0.80
2022-10-22T14:26:40.317Z,0.80
2022-10-22T14:29:11.525Z,1.08
2022-10-22T14:34:13.524Z,1.98
2022-10-22T14:36:40.288Z,3.15
2022-10-22T14:39:07.102Z,1.75
2022-10-22T14:41:33.822Z,1.80
2022-10-22T14:44:00.864Z,1.23
2022-10-22T14:46:27.426Z,1.20
2022-10-22T14:48:54.551Z,1.33
2022-10-22T14:51:21.582Z,1.08
2022-10-22T14:53:50.601Z,1.17
2022-10-22T14:56:21.226Z,1.38
2022-10-22T14:58:48.016Z,1.25
2022-10-22T15:01:15.124Z,1.40
2022-10-22T15:03:41.776Z,4.18
2022-10-22T15:06:08.485Z,4.55
2022-10-22T15:08:35.316Z,1.50
2022-10-22T15:11:08.008Z,1.45
2022-10-22T15:13:35.155Z,1.77
2022-10-22T15:16:05.540Z,1.10
2022-10-22T15:18:32.494Z,1.15
2022-10-22T15:21:01.114Z,1.20
2022-10-22T15:23:28.704Z,1.10
2022-10-22T15:25:56.385Z,0.77
2022-10-22T15:28:24.075Z,1.02
2022-10-22T15:31:00.084Z,1.00
2022-10-22T15:33:28.456Z,0.95
2022-10-22T15:35:55.711Z,0.90
2022-10-22T15:38:26.679Z,1.17
2022-10-22T15:41:05.801Z,0.93
2022-10-22T15:43:33.575Z,0.90
2022-10-22T15:46:18.378Z,1.20
2022-10-22T15:48:45.681Z,1.02
2022-10-22T15:51:15.106Z,1.00
2022-10-22T15:53:42.090Z,1.05
2022-10-22T15:56:10.018Z,0.90
2022-10-22T15:58:37.589Z,1.25
2022-10-22T16:01:09.345Z,1.00
2022-10-22T16:03:36.231Z,1.20
2022-10-22T16:06:04.139Z,1.02
2022-10-22T16:08:31.002Z,2.30
2022-10-22T16:10:58.573Z,4.55
2022-10-22T16:13:26.492Z,3.03
2022-10-22T16:15:53.994Z,2.40
2022-10-22T16:18:23.824Z,1.52
2022-10-22T16:20:50.756Z,1.15
2022-10-22T16:23:19.055Z,1.10
2022-10-22T16:25:46.324Z,1.10
2022-10-22T16:28:14.379Z,1.55
2022-10-22T16:30:41.763Z,1.02
2022-10-22T16:33:10.572Z,1.00
2022-10-22T16:35:41.965Z,0.98
2022-10-22T16:38:10.383Z,1.63
2022-10-22T16:40:40.001Z,2.60
2022-10-22T16:43:08.294Z,4.70
2022-10-22T16:45:34.854Z,4.45
2022-10-22T16:48:01.709Z,4.18
2022-10-22T16:50:28.471Z,6.80
2022-10-22T16:52:55.869Z,3.40
2022-10-22T16:55:23.201Z,4.15
2022-10-22T16:57:52.477Z,2.80
2022-10-22T17:00:20.113Z,2.10
2022-10-22T17:02:51.584Z,3.35
2022-10-22T17:05:18.369Z,4.22
2022-10-22T17:07:46.040Z,3.30
2022-10-22T17:10:12.819Z,2.50
2022-10-22T17:12:41.131Z,3.35
2022-10-22T17:15:08.409Z,4.80
2022-10-22T17:17:35.214Z,5.60
2022-10-22T17:20:02.281Z,4.70
2022-10-22T17:22:28.851Z,4.30
2022-10-22T17:25:11.397Z,4.25
2022-10-22T17:27:38.980Z,4.03
2022-10-22T17:30:12.908Z,6.80
2022-10-22T17:32:40.105Z,6.25
2022-10-22T17:35:11.657Z,7.00
2022-10-22T17:37:40.707Z,5.72
2022-10-22T17:40:08.509Z,4.47
2022-10-22T17:42:35.049Z,2.80
2022-10-22T17:45:01.839Z,1.70
2022-10-22T17:47:28.866Z,1.98
2022-10-22T17:49:55.506Z,1.85
2022-10-22T17:52:23.030Z,1.58
2022-10-22T17:54:50.551Z,2.08
2022-10-22T17:57:17.482Z,2.15
2022-10-22T17:59:44.190Z,2.72
2022-10-22T18:02:16.548Z,2.00
2022-10-22T18:04:43.773Z,1.27
2022-10-22T18:07:10.238Z,1.73
2022-10-22T18:09:37.356Z,1.40
2022-10-22T18:12:03.962Z,1.65
2022-10-22T18:14:30.525Z,1.20
2022-10-22T18:16:57.229Z,1.38
2022-10-22T18:19:24.797Z,1.67
2022-10-22T18:21:51.788Z,1.67
2022-10-22T18:24:19.323Z,2.00
2022-10-22T18:26:46.242Z,4.45
2022-10-22T18:29:15.995Z,2.20
2022-10-22T18:31:42.792Z,1.90
2022-10-22T18:34:09.421Z,1.77
2022-10-22T18:36:40.639Z,2.10
2022-10-22T18:39:08.748Z,2.00
2022-10-22T18:41:36.352Z,1.70
2022-10-22T18:44:05.550Z,1.87
2022-10-22T18:46:39.879Z,1.80
2022-10-22T18:49:07.759Z,1.80
2022-10-22T18:51:35.537Z,2.20
2022-10-22T18:54:21.701Z,2.83
2022-10-22T18:56:49.066Z,3.22
2022-10-22T18:59:24.712Z,2.65
2022-10-22T19:01:55.947Z,3.70
2022-10-22T19:04:22.677Z,3.63
2022-10-22T19:06:49.328Z,3.40
2022-10-22T19:09:16.150Z,3.30
2022-10-22T19:11:44.824Z,4.10
2022-10-22T19:14:13.244Z,3.35
2022-10-22T19:16:40.166Z,3.42
2022-10-22T19:19:08.005Z,3.67
2022-10-22T19:21:37.362Z,3.70
2022-10-22T19:24:04.213Z,3.77
2022-10-22T19:26:31.224Z,3.10
2022-10-22T19:28:59.697Z,3.50
2022-10-22T19:31:27.332Z,3.58
2022-10-22T19:33:55.348Z,3.40
2022-10-22T19:36:24.740Z,3.70
2022-10-22T19:38:52.129Z,3.47
2022-10-22T19:41:22.069Z,3.77
2022-10-22T19:43:51.117Z,3.63
2022-10-22T19:46:19.918Z,4.13
2022-10-22T19:48:48.768Z,4.10
2022-10-22T19:51:19.090Z,4.93
2022-10-22T19:53:47.135Z,5.00
2022-10-22T19:56:17.855Z,5.00
2022-10-22T19:58:46.353Z,4.20
2022-10-22T20:01:15.835Z,5.03
2022-10-22T20:03:42.744Z,4.03
2022-10-22T20:06:11.247Z,4.47
2022-10-22T20:08:38.486Z,3.77
2022-10-22T20:11:17.340Z,4.00
2022-10-22T20:13:46.604Z,3.57
2022-10-22T20:16:18.132Z,4.40
2022-10-22T20:18:44.992Z,3.83
2022-10-22T20:21:16.184Z,4.15
2022-10-22T20:23:43.668Z,3.60
2022-10-22T20:26:10.933Z,4.10
2022-10-22T20:28:38.706Z,3.97
2022-10-22T20:31:13.202Z,3.40
2022-10-22T20:33:39.821Z,4.03
2022-10-22T20:36:11.352Z,3.57
2022-10-22T20:38:38.399Z,4.07
2022-10-22T20:41:11.424Z,3.90
2022-10-22T20:43:38.833Z,4.20
2022-10-22T20:46:05.896Z,4.07
2022-10-22T20:48:32.848Z,3.50
2022-10-22T20:51:00.255Z,3.80
2022-10-22T20:53:28.671Z,3.23
2022-10-22T20:55:59.017Z,3.23
2022-10-22T20:58:27.155Z,3.03
2022-10-22T21:00:56.939Z,3.13
2022-10-22T21:03:23.868Z,3.70
2022-10-22T21:05:50.598Z,4.20
2022-10-22T21:08:17.710Z,4.77
2022-10-22T21:10:49.253Z,4.50
2022-10-22T21:13:16.795Z,4.63
2022-10-22T21:15:44.046Z,4.30
2022-10-22T21:18:10.977Z,3.93
2022-10-22T21:20:39.360Z,3.63
2022-10-22T21:23:06.308Z,3.20
2022-10-22T21:25:39.500Z,3.43
2022-10-22T21:28:10.501Z,3.43
2022-10-22T21:30:36.954Z,3.80
2022-10-22T21:33:03.794Z,3.67
2022-10-22T21:35:30.436Z,3.80
2022-10-22T21:37:57.072Z,4.93
2022-10-22T21:40:23.560Z,3.97
2022-10-22T21:42:51.148Z,4.47
2022-10-22T21:45:22.139Z,4.57
2022-10-22T21:47:49.051Z,4.23
2022-10-22T21:50:15.767Z,3.63
2022-10-22T21:52:42.422Z,3.90
2022-10-22T21:55:09.456Z,3.07
2022-10-22T21:57:36.164Z,2.93
2022-10-22T22:00:04.153Z,2.90
2022-10-22T22:02:31.633Z,3.10
2022-10-22T22:04:58.718Z,3.53
2022-10-22T22:07:25.529Z,3.03
2022-10-22T22:09:52.153Z,4.00
2022-10-22T22:12:20.516Z,4.23
2022-10-22T22:14:47.612Z,4.27
2022-10-22T22:17:18.918Z,3.80
2022-10-22T22:19:46.077Z,5.77
2022-10-22T22:22:12.752Z,5.27
2022-10-22T22:24:39.952Z,10.53
2022-10-22T22:27:08.031Z,6.37
2022-10-22T22:29:35.029Z,4.93
2022-10-22T22:32:02.649Z,4.80
2022-10-22T22:34:30.955Z,4.10
2022-10-22T22:37:02.720Z,3.00
2022-10-22T22:39:29.391Z,3.30
2022-10-22T22:41:55.848Z,3.10
2022-10-22T22:44:22.331Z,2.60
2022-10-22T22:46:48.861Z,2.67
2022-10-22T22:49:15.470Z,2.40
2022-10-22T22:51:44.132Z,2.50
2022-10-22T22:54:11.144Z,2.70
2022-10-22T22:56:37.711Z,2.80
2022-10-22T22:59:05.818Z,3.10
2022-10-22T23:01:37.791Z,2.97
2022-10-22T23:04:11.984Z,2.67
2022-10-22T23:06:40.093Z,2.83
2022-10-22T23:09:09.497Z,2.50
2022-10-22T23:11:36.396Z,2.90
2022-10-22T23:14:05.966Z,3.17
2022-10-22T23:16:36.684Z,3.07
2022-10-22T23:19:04.707Z,2.67
2022-10-22T23:21:35.271Z,3.20
2022-10-22T23:24:04.933Z,2.97
2022-10-22T23:26:38.453Z,2.80
2022-10-22T23:29:23.201Z,3.70
2022-10-22T23:31:50.796Z,3.50
2022-10-22T23:34:22.994Z,4.47
2022-10-22T23:36:50.280Z,3.27
2022-10-22T23:39:20.032Z,3.10
2022-10-22T23:41:48.841Z,3.20
2022-10-22T23:44:15.697Z,3.57
2022-10-22T23:46:44.057Z,3.70
2022-10-22T23:49:10.861Z,2.77
2022-10-22T23:51:38.696Z,3.00
2022-10-22T23:54:10.737Z,3.50
2022-10-22T23:56:37.339Z,3.53
2022-10-22T23:59:05.593Z,3.50
